Aurora Australis — VNAA — position and weather

sailwx.info

Track history (hours):
 
Tides and Currents Weather Stations Pressure Air Temp Water Temp Dewpoint Dewpoint Depression Visibility Wind Speed Wind Dir Waves Ship Positions

Oceanographic research ship Aurora Australis (Australia)

Detailed information on ship capabilities available from University of Delaware's Ocean Information Center.

Last reported at 2016-Apr-30 13:07 UTC. Time now 2016-May-02 01:22 UTC.
Position S 32°03' E 115°42'.

Length 94.9 m; beam 20.3 m; draft 7.9 m.

Type: Ship. MMSI: 503043000.

Date/timePositionNaut miles runAvg speedWind from/ knotsBaromVisibWave heightAir tempDewpointWater temp
2016-Apr-30 13:07S 32°03' E 115°42'2 0.5
2016-Apr-30 08:17S 32°02' E 115°45'0 0.1
2016-Apr-30 07:32S 32°02' E 115°45'0 0.0
2016-Apr-30 06:05S 32°02' E 115°45'0 0.0
2016-Apr-30 05:23S 32°02' E 115°45'0 0.0
2016-Apr-30 04:32S 32°02' E 115°45'0 0.0
2016-Apr-30 03:32S 32°02' E 115°45'4 3.6
2016-Apr-30 02:31S 32°03' E 115°41'1 0.5
2016-Apr-30 01:09S 32°03' E 115°42'  
2016-Apr-22 02:31N 01°14' E 104°03'1111.8
2016-Apr-22 01:33N 01°12' E 103°52'4 4.3
2016-Apr-22 00:33N 01°14' E 103°49'1 1.1
2016-Apr-21 23:29N 01°15' E 103°48'0 0.0
2016-Apr-21 22:32N 01°15' E 103°48'0 0.0
2016-Apr-21 21:32N 01°15' E 103°48'0 0.0
2016-Apr-21 20:32N 01°15' E 103°48'0 0.0
2016-Apr-21 19:32N 01°15' E 103°48'0 0.0
2016-Apr-21 18:29N 01°15' E 103°48'0 0.1
2016-Apr-21 17:32N 01°15' E 103°48'0 0.0
2016-Apr-21 16:32N 01°15' E 103°48'0 0.0
2016-Apr-21 15:32N 01°15' E 103°48'0 0.0
2016-Apr-21 14:32N 01°15' E 103°48'0 0.0
2016-Apr-21 13:33N 01°15' E 103°48'0 0.0
2016-Apr-21 12:33N 01°15' E 103°48'0 0.0
2016-Apr-21 11:33N 01°15' E 103°48'0 0.0
2016-Apr-21 10:33N 01°15' E 103°48'0 0.1
2016-Apr-21 09:34N 01°15' E 103°48'4 3.8
2016-Apr-21 08:33N 01°15' E 103°44'5 5.0
2016-Apr-21 07:31N 01°17' E 103°40'1 1.3
2016-Apr-21 06:23N 01°18' E 103°41'0 0.0
2016-Apr-21 05:26N 01°18' E 103°41'0 0.0
2016-Apr-21 04:23N 01°18' E 103°41'0 0.0
2016-Apr-21 02:29N 01°18' E 103°41'0 0.0
2016-Apr-21 01:05N 01°18' E 103°41'0 0.0
2016-Apr-21 00:29N 01°18' E 103°41'0 0.0
2016-Apr-20 23:17N 01°18' E 103°41'0 0.0
2016-Apr-20 22:11N 01°18' E 103°41'0 0.0
2016-Apr-20 21:23N 01°18' E 103°41'0 0.0
2016-Apr-20 20:29N 01°18' E 103°41'0 0.0
2016-Apr-20 19:29N 01°18' E 103°41'0 0.0
2016-Apr-20 18:29N 01°18' E 103°41'0 0.0
2016-Apr-20 16:17N 01°18' E 103°41'0 0.0
2016-Apr-20 15:29N 01°18' E 103°41'0 0.0
2016-Apr-20 14:29N 01°18' E 103°41'0 0.0
2016-Apr-20 13:17N 01°18' E 103°41'  
Track history (hours):
 
Tides and Currents Weather Stations Pressure Air Temp Water Temp Dewpoint Dewpoint Depression Visibility Wind Speed Wind Dir Waves Ship Positions

Oceanographic research ship Aurora Australis (Australia)

Detailed information on ship capabilities available from University of Delaware's Ocean Information Center.

Last reported at 2016-Apr-30 13:07 UTC. Time now 2016-May-02 01:22 UTC.
Position S 32°03' E 115°42'.

Length 94.9 m; beam 20.3 m; draft 7.9 m.

Type: Ship. MMSI: 503043000.

Date/timePositionNaut miles runAvg speedWind from/ knotsBaromVisibWave heightAir tempDewpointWater temp
2016-Apr-30 13:07S 32°03' E 115°42'2 0.5
2016-Apr-30 08:17S 32°02' E 115°45'0 0.1
2016-Apr-30 07:32S 32°02' E 115°45'0 0.0
2016-Apr-30 06:05S 32°02' E 115°45'0 0.0
2016-Apr-30 05:23S 32°02' E 115°45'0 0.0
2016-Apr-30 04:32S 32°02' E 115°45'0 0.0
2016-Apr-30 03:32S 32°02' E 115°45'4 3.6
2016-Apr-30 02:31S 32°03' E 115°41'1 0.5
2016-Apr-30 01:09S 32°03' E 115°42'  
2016-Apr-22 02:31N 01°14' E 104°03'1111.8
2016-Apr-22 01:33N 01°12' E 103°52'4 4.3
2016-Apr-22 00:33N 01°14' E 103°49'1 1.1
2016-Apr-21 23:29N 01°15' E 103°48'0 0.0
2016-Apr-21 22:32N 01°15' E 103°48'0 0.0
2016-Apr-21 21:32N 01°15' E 103°48'0 0.0
2016-Apr-21 20:32N 01°15' E 103°48'0 0.0
2016-Apr-21 19:32N 01°15' E 103°48'0 0.0
2016-Apr-21 18:29N 01°15' E 103°48'0 0.1
2016-Apr-21 17:32N 01°15' E 103°48'0 0.0
2016-Apr-21 16:32N 01°15' E 103°48'0 0.0
2016-Apr-21 15:32N 01°15' E 103°48'0 0.0
2016-Apr-21 14:32N 01°15' E 103°48'0 0.0
2016-Apr-21 13:33N 01°15' E 103°48'0 0.0
2016-Apr-21 12:33N 01°15' E 103°48'0 0.0
2016-Apr-21 11:33N 01°15' E 103°48'0 0.0
2016-Apr-21 10:33N 01°15' E 103°48'0 0.1
2016-Apr-21 09:34N 01°15' E 103°48'4 3.8
2016-Apr-21 08:33N 01°15' E 103°44'5 5.0
2016-Apr-21 07:31N 01°17' E 103°40'1 1.3
2016-Apr-21 06:23N 01°18' E 103°41'0 0.0
2016-Apr-21 05:26N 01°18' E 103°41'0 0.0
2016-Apr-21 04:23N 01°18' E 103°41'0 0.0
2016-Apr-21 02:29N 01°18' E 103°41'0 0.0
2016-Apr-21 01:05N 01°18' E 103°41'0 0.0
2016-Apr-21 00:29N 01°18' E 103°41'0 0.0
2016-Apr-20 23:17N 01°18' E 103°41'0 0.0
2016-Apr-20 22:11N 01°18' E 103°41'0 0.0
2016-Apr-20 21:23N 01°18' E 103°41'0 0.0
2016-Apr-20 20:29N 01°18' E 103°41'0 0.0
2016-Apr-20 19:29N 01°18' E 103°41'0 0.0
2016-Apr-20 18:29N 01°18' E 103°41'0 0.0
2016-Apr-20 16:17N 01°18' E 103°41'0 0.0
2016-Apr-20 15:29N 01°18' E 103°41'0 0.0
2016-Apr-20 14:29N 01°18' E 103°41'0 0.0
2016-Apr-20 13:17N 01°18' E 103°41'  

Dump ship's entire track history